createdAt,value
2017-11-03T00:01:08.316Z,99.27
2017-11-03T00:03:35.081Z,93.80
2017-11-03T00:06:01.805Z,92.27
2017-11-03T00:08:28.542Z,94.60
2017-11-03T00:10:55.299Z,92.43
2017-11-03T00:13:22.028Z,93.23
2017-11-03T00:15:48.794Z,95.43
2017-11-03T00:18:15.587Z,91.83
2017-11-03T00:20:42.331Z,107.43
2017-11-03T00:23:09.153Z,102.10
2017-11-03T00:25:35.894Z,95.90
2017-11-03T00:28:02.639Z,100.37
2017-11-03T00:30:29.373Z,103.50
2017-11-03T00:32:56.118Z,106.93
2017-11-03T00:35:22.853Z,100.47
2017-11-03T00:37:49.623Z,101.03
2017-11-03T00:40:16.350Z,104.00
2017-11-03T00:42:43.097Z,97.93
2017-11-03T00:45:09.903Z,98.77
2017-11-03T00:47:36.633Z,102.07
2017-11-03T00:50:03.561Z,107.97
2017-11-03T00:52:31.077Z,96.57
2017-11-03T00:54:57.810Z,97.43
2017-11-03T00:57:24.569Z,99.60
2017-11-03T00:59:51.561Z,95.70
2017-11-03T01:02:18.437Z,93.90
2017-11-03T01:04:45.166Z,97.07
2017-11-03T01:07:11.957Z,103.10
2017-11-03T01:09:39.501Z,101.63
2017-11-03T01:12:06.236Z,97.70
2017-11-03T01:14:32.957Z,100.40
2017-11-03T01:16:59.714Z,97.33
2017-11-03T01:19:26.444Z,105.80
2017-11-03T01:21:53.194Z,103.53
2017-11-03T01:24:19.942Z,100.97
2017-11-03T01:26:46.670Z,91.90
2017-11-03T01:29:13.413Z,107.60
2017-11-03T01:31:40.150Z,102.67
2017-11-03T01:34:06.890Z,98.27
2017-11-03T01:36:33.618Z,108.13
2017-11-03T01:39:00.535Z,104.27
2017-11-03T01:41:27.262Z,112.27
2017-11-03T01:43:53.997Z,105.80
2017-11-03T01:46:20.754Z,104.30
2017-11-03T01:48:47.618Z,106.60
2017-11-03T01:51:14.357Z,107.27
2017-11-03T01:53:41.131Z,109.67
2017-11-03T01:56:08.672Z,102.37
2017-11-03T01:58:36.415Z,117.00
2017-11-03T02:01:03.139Z,106.40
2017-11-03T02:03:29.917Z,102.93
2017-11-03T02:05:57.394Z,109.27
2017-11-03T02:08:24.144Z,106.10
2017-11-03T02:10:50.885Z,100.13
2017-11-03T02:13:17.635Z,107.13
2017-11-03T02:15:44.567Z,96.57
2017-11-03T02:18:11.292Z,101.33
2017-11-03T02:20:38.782Z,109.67
2017-11-03T02:23:05.527Z,117.03
2017-11-03T02:25:32.253Z,106.50
2017-11-03T02:27:58.987Z,105.17
2017-11-03T02:30:25.731Z,108.63
2017-11-03T02:32:52.460Z,97.47
2017-11-03T02:35:19.187Z,107.27
2017-11-03T02:37:45.921Z,108.47
2017-11-03T02:40:13.448Z,115.37
2017-11-03T02:42:40.187Z,106.47
2017-11-03T02:45:06.913Z,102.13
2017-11-03T02:47:33.657Z,100.77
2017-11-03T02:50:00.379Z,106.17
2017-11-03T02:52:27.146Z,103.83
2017-11-03T02:54:53.895Z,108.70
2017-11-03T02:57:20.629Z,96.87
2017-11-03T02:59:47.397Z,109.93
2017-11-03T03:02:14.136Z,105.30
2017-11-03T03:04:40.864Z,107.23
2017-11-03T03:07:08.402Z,121.17
2017-11-03T03:09:35.144Z,105.67
2017-11-03T03:12:01.909Z,108.50
2017-11-03T03:14:28.671Z,102.60
2017-11-03T03:16:55.424Z,106.37
2017-11-03T03:19:22.188Z,97.47
2017-11-03T03:21:48.917Z,107.23
2017-11-03T03:24:15.679Z,107.60
2017-11-03T03:26:43.183Z,111.40
2017-11-03T03:29:09.939Z,100.30
2017-11-03T03:31:36.673Z,107.97
2017-11-03T03:34:03.429Z,110.60
2017-11-03T03:36:30.165Z,104.63
2017-11-03T03:38:56.904Z,115.93
2017-11-03T03:41:23.792Z,107.80
2017-11-03T03:43:51.295Z,110.30
2017-11-03T03:46:18.035Z,105.87
2017-11-03T03:48:44.796Z,105.50
2017-11-03T03:51:11.572Z,117.20
2017-11-03T03:53:39.077Z,120.93
2017-11-03T03:56:05.840Z,103.77
2017-11-03T03:58:32.571Z,104.10
2017-11-03T04:00:59.336Z,112.10
2017-11-03T04:03:26.848Z,122.83
2017-11-03T04:05:53.729Z,114.83
2017-11-03T04:08:21.254Z,117.57
2017-11-03T04:10:48.017Z,117.07
2017-11-03T04:13:15.520Z,113.73
2017-11-03T04:15:42.244Z,113.33
2017-11-03T04:18:08.965Z,112.70
2017-11-03T04:20:36.486Z,107.97
2017-11-03T04:23:03.231Z,112.50
2017-11-03T04:25:29.949Z,114.73
2017-11-03T04:27:56.695Z,114.77
2017-11-03T04:30:23.451Z,127.73
2017-11-03T04:32:50.190Z,126.20
2017-11-03T04:35:16.992Z,111.57
2017-11-03T04:37:43.712Z,125.80
2017-11-03T04:40:10.484Z,127.67
2017-11-03T04:42:37.218Z,123.10
2017-11-03T04:45:03.964Z,109.60
2017-11-03T04:47:30.723Z,112.40
2017-11-03T04:49:57.456Z,121.07
2017-11-03T04:52:24.216Z,127.07
2017-11-03T04:54:51.719Z,118.37
2017-11-03T04:57:18.498Z,111.87
2017-11-03T04:59:45.234Z,120.03
2017-11-03T05:02:11.991Z,108.67
2017-11-03T05:04:38.733Z,120.43
2017-11-03T05:07:06.252Z,107.90
2017-11-03T05:09:33.011Z,125.13
2017-11-03T05:11:59.751Z,108.67
2017-11-03T05:14:26.516Z,116.20
2017-11-03T05:16:54.019Z,113.70
2017-11-03T05:19:20.776Z,114.13
2017-11-03T05:21:47.523Z,111.87
2017-11-03T05:24:14.289Z,117.00
2017-11-03T05:26:41.788Z,104.87
2017-11-03T05:29:08.537Z,104.00
2017-11-03T05:31:35.287Z,114.47
2017-11-03T05:34:02.037Z,109.90
2017-11-03T05:36:28.791Z,119.47
2017-11-03T05:38:56.303Z,96.77
2017-11-03T05:41:25.064Z,99.90
2017-11-03T05:43:51.800Z,100.40
2017-11-03T05:46:18.560Z,99.23
2017-11-03T05:48:45.315Z,111.70
2017-11-03T05:51:12.079Z,106.37
2017-11-03T05:53:39.635Z,97.03
2017-11-03T05:56:06.373Z,105.43
2017-11-03T05:58:33.188Z,100.90
2017-11-03T06:00:59.924Z,106.83
2017-11-03T06:03:26.685Z,105.97
2017-11-03T06:05:53.423Z,102.80
2017-11-03T06:08:20.212Z,100.40
2017-11-03T06:10:46.972Z,102.97
2017-11-03T06:13:13.775Z,110.87
2017-11-03T06:15:41.307Z,96.13
2017-11-03T06:18:08.044Z,108.97
2017-11-03T06:20:34.807Z,109.20
2017-11-03T06:23:02.321Z,103.77
2017-11-03T06:25:29.076Z,112.40
2017-11-03T06:27:55.826Z,111.30
2017-11-03T06:30:22.892Z,111.07
2017-11-03T06:32:49.713Z,113.10
2017-11-03T06:35:17.909Z,112.03
2017-11-03T06:37:45.678Z,120.50
2017-11-03T06:40:12.451Z,125.70
2017-11-03T06:42:39.184Z,132.97
2017-11-03T06:45:05.933Z,118.73
2017-11-03T06:47:32.710Z,132.60
2017-11-03T06:49:59.448Z,135.13
2017-11-03T06:52:26.216Z,144.97
2017-11-03T06:54:52.977Z,141.43
2017-11-03T06:57:19.737Z,147.37
2017-11-03T06:59:46.492Z,137.53
2017-11-03T07:02:13.241Z,138.63
2017-11-03T07:04:39.984Z,142.77
2017-11-03T07:07:06.759Z,147.03
2017-11-03T07:09:33.510Z,147.83
2017-11-03T07:12:01.936Z,137.77
2017-11-03T07:14:28.891Z,151.63
2017-11-03T07:16:56.429Z,140.00
2017-11-03T07:19:23.205Z,144.70
2017-11-03T07:21:50.722Z,132.23
2017-11-03T07:24:17.564Z,130.03
2017-11-03T07:26:44.299Z,141.67
2017-11-03T07:29:12.601Z,142.20
2017-11-03T07:31:40.107Z,136.30
2017-11-03T07:34:06.874Z,140.23
2017-11-03T07:36:34.581Z,131.90
2017-11-03T07:39:02.082Z,142.70
2017-11-03T07:41:28.828Z,139.70
2017-11-03T07:43:55.593Z,127.47
2017-11-03T07:46:23.110Z,140.47
2017-11-03T07:48:49.855Z,131.53
2017-11-03T07:51:16.612Z,135.90
2017-11-03T07:53:43.384Z,126.23
2017-11-03T07:56:10.237Z,143.90
2017-11-03T07:58:36.988Z,138.03
2017-11-03T08:01:03.872Z,132.53
2017-11-03T08:03:30.616Z,138.63
2017-11-03T08:05:57.353Z,139.07
2017-11-03T08:08:24.112Z,137.37
2017-11-03T08:10:51.612Z,134.20
2017-11-03T08:13:18.370Z,137.30
2017-11-03T08:15:45.108Z,133.10
2017-11-03T08:18:11.897Z,136.33
2017-11-03T08:20:39.568Z,128.23
2017-11-03T08:23:06.347Z,127.37
2017-11-03T08:25:33.093Z,122.73
2017-11-03T08:27:59.842Z,126.43
2017-11-03T08:30:26.587Z,119.53
2017-11-03T08:32:53.358Z,123.10
2017-11-03T08:35:20.929Z,118.17
2017-11-03T08:37:48.427Z,122.60
2017-11-03T08:40:15.178Z,117.70
2017-11-03T08:42:41.957Z,116.40
2017-11-03T08:45:08.698Z,123.07
2017-11-03T08:47:36.212Z,112.07
2017-11-03T08:50:02.994Z,111.07
2017-11-03T08:52:30.510Z,115.87
2017-11-03T08:54:57.247Z,100.87
2017-11-03T08:57:24.017Z,111.57
2017-11-03T08:59:51.519Z,103.77
2017-11-03T09:02:18.337Z,99.37
2017-11-03T09:04:45.076Z,115.17
2017-11-03T09:07:11.837Z,103.33
2017-11-03T09:09:38.579Z,99.73
2017-11-03T09:12:05.334Z,101.87
2017-11-03T09:14:32.086Z,99.43
2017-11-03T09:16:58.820Z,96.60
2017-11-03T09:19:25.584Z,113.93
2017-11-03T09:21:53.100Z,90.13
2017-11-03T09:24:19.859Z,94.60
2017-11-03T09:26:46.600Z,95.23
2017-11-03T09:29:13.381Z,92.70
2017-11-03T09:31:40.124Z,80.80
2017-11-03T09:34:06.873Z,74.43
2017-11-03T09:36:33.610Z,73.57
2017-11-03T09:39:00.370Z,76.93
2017-11-03T09:41:27.104Z,79.93
2017-11-03T09:43:53.852Z,86.67
2017-11-03T09:46:20.618Z,76.03
2017-11-03T09:48:47.363Z,76.97
2017-11-03T09:51:14.125Z,79.43
2017-11-03T09:53:41.636Z,71.77
2017-11-03T09:56:08.405Z,68.57
2017-11-03T09:58:35.915Z,74.53
2017-11-03T10:01:02.645Z,74.60
2017-11-03T10:03:29.400Z,69.70
2017-11-03T10:05:56.149Z,74.73
2017-11-03T10:08:23.680Z,67.67
2017-11-03T10:10:50.416Z,62.37
2017-11-03T10:13:17.163Z,65.23
2017-11-03T10:15:43.921Z,66.27
2017-11-03T10:18:10.728Z,62.10
2017-11-03T10:20:37.465Z,62.33
2017-11-03T10:23:04.231Z,66.67
2017-11-03T10:25:30.967Z,61.63
2017-11-03T10:27:57.718Z,56.20
2017-11-03T10:30:24.457Z,61.93
2017-11-03T10:32:51.287Z,56.80
2017-11-03T10:35:18.044Z,56.73
2017-11-03T10:37:44.811Z,60.43
2017-11-03T10:40:12.298Z,57.20
2017-11-03T10:42:39.058Z,54.37
2017-11-03T10:45:05.797Z,54.43
2017-11-03T10:47:32.553Z,51.20
2017-11-03T10:49:59.300Z,48.60
2017-11-03T10:52:26.069Z,53.10
2017-11-03T10:54:53.621Z,56.70
2017-11-03T10:57:21.152Z,52.97
2017-11-03T10:59:48.137Z,49.80
2017-11-03T11:02:15.623Z,47.53
2017-11-03T11:04:42.397Z,48.27
2017-11-03T11:07:09.136Z,49.07
2017-11-03T11:09:35.903Z,50.03
2017-11-03T11:12:03.410Z,49.47
2017-11-03T11:14:31.309Z,50.37
2017-11-03T11:16:58.056Z,51.20
2017-11-03T11:19:25.587Z,52.37
2017-11-03T11:21:52.473Z,50.00
2017-11-03T11:24:19.227Z,50.93
2017-11-03T11:26:46.031Z,52.23
2017-11-03T11:29:13.564Z,50.77
2017-11-03T11:31:40.303Z,51.97
2017-11-03T11:34:07.056Z,52.20
2017-11-03T11:36:33.811Z,53.90
2017-11-03T11:39:01.309Z,57.60
2017-11-03T11:41:28.065Z,56.40
2017-11-03T11:43:54.815Z,52.87
2017-11-03T11:46:21.553Z,46.90
2017-11-03T11:48:48.312Z,54.10
2017-11-03T11:51:15.046Z,52.63
2017-11-03T11:53:41.791Z,54.57
2017-11-03T11:56:08.543Z,56.57
2017-11-03T11:58:36.185Z,51.80
2017-11-03T12:01:02.937Z,55.63
2017-11-03T12:03:30.515Z,49.93
2017-11-03T12:05:58.025Z,52.23
2017-11-03T12:08:24.913Z,55.10
2017-11-03T12:10:52.413Z,55.50
2017-11-03T12:13:19.200Z,52.33
2017-11-03T12:15:46.715Z,54.87
2017-11-03T12:18:13.492Z,49.20
2017-11-03T12:20:41.032Z,50.77
2017-11-03T12:23:07.764Z,52.23
2017-11-03T12:25:34.660Z,47.80
2017-11-03T12:28:01.393Z,44.20
2017-11-03T12:30:28.164Z,52.37
2017-11-03T12:32:54.865Z,50.53
2017-11-03T12:35:21.628Z,51.80
2017-11-03T12:37:48.381Z,48.87
2017-11-03T12:40:15.149Z,47.03
2017-11-03T12:42:42.684Z,49.40
2017-11-03T12:45:09.441Z,46.40
2017-11-03T12:47:36.330Z,54.30
2017-11-03T12:50:03.078Z,43.80
2017-11-03T12:52:29.831Z,48.07
2017-11-03T12:54:56.580Z,47.73
2017-11-03T12:57:23.336Z,46.63
2017-11-03T12:59:50.120Z,45.70
2017-11-03T13:02:17.612Z,43.57
2017-11-03T13:04:44.516Z,45.90
2017-11-03T13:07:11.256Z,48.57
2017-11-03T13:09:38.013Z,43.57
2017-11-03T13:12:04.743Z,44.63
2017-11-03T13:14:31.639Z,42.27
2017-11-03T13:16:58.391Z,45.27
2017-11-03T13:19:25.923Z,44.20
2017-11-03T13:21:52.664Z,39.97
2017-11-03T13:24:19.405Z,45.43
2017-11-03T13:26:46.921Z,43.03
2017-11-03T13:29:13.663Z,43.17
2017-11-03T13:31:40.438Z,41.90
2017-11-03T13:34:07.164Z,40.97
2017-11-03T13:36:33.903Z,40.03
2017-11-03T13:39:00.680Z,50.40
2017-11-03T13:41:28.211Z,44.07
2017-11-03T13:43:55.740Z,44.43
2017-11-03T13:46:22.474Z,46.03
2017-11-03T13:48:49.225Z,42.93
2017-11-03T13:51:15.964Z,49.30
2017-11-03T13:53:43.251Z,46.80
2017-11-03T13:56:09.997Z,47.17
2017-11-03T13:58:36.744Z,43.00
2017-11-03T14:01:04.270Z,44.10
2017-11-03T14:03:31.017Z,53.00
2017-11-03T14:05:57.776Z,42.57
2017-11-03T14:08:25.280Z,44.47
2017-11-03T14:10:52.040Z,46.93
2017-11-03T14:13:18.794Z,43.00
2017-11-03T14:15:45.548Z,44.90
2017-11-03T14:18:13.130Z,46.83
2017-11-03T14:20:40.800Z,42.97
2017-11-03T14:23:07.566Z,49.77
2017-11-03T14:25:34.321Z,44.57
2017-11-03T14:28:01.074Z,49.87
2017-11-03T14:30:27.827Z,47.10
2017-11-03T14:32:54.560Z,42.80
2017-11-03T14:35:21.313Z,45.53
2017-11-03T14:37:48.875Z,47.77
2017-11-03T14:40:16.379Z,46.57
2017-11-03T14:42:43.139Z,45.17
2017-11-03T14:45:09.868Z,40.27
2017-11-03T14:47:36.762Z,47.57
2017-11-03T14:50:03.522Z,39.90
2017-11-03T14:52:30.276Z,39.53
2017-11-03T14:54:57.025Z,36.30
2017-11-03T14:57:23.768Z,32.63
2017-11-03T14:59:50.519Z,31.83
2017-11-03T15:02:17.354Z,32.00
2017-11-03T15:04:44.116Z,36.67
2017-11-03T15:07:11.632Z,38.23
2017-11-03T15:09:38.418Z,34.73
2017-11-03T15:12:05.923Z,36.20
2017-11-03T15:14:32.684Z,35.20
2017-11-03T15:16:59.421Z,36.97
2017-11-03T15:19:26.224Z,35.70
2017-11-03T15:21:53.696Z,37.93
2017-11-03T15:24:20.485Z,40.57
2017-11-03T15:26:47.209Z,46.33
2017-11-03T15:29:14.012Z,40.77
2017-11-03T15:31:40.776Z,35.83
2017-11-03T15:34:07.517Z,39.57
2017-11-03T15:36:34.265Z,41.80
2017-11-03T15:39:01.005Z,40.37
2017-11-03T15:41:27.999Z,41.83
2017-11-03T15:43:54.728Z,46.70
2017-11-03T15:46:22.201Z,40.53
2017-11-03T15:48:48.973Z,44.07
2017-11-03T15:51:15.729Z,40.73
2017-11-03T15:53:42.512Z,45.23
2017-11-03T15:56:09.250Z,44.17
2017-11-03T15:58:35.996Z,43.57
2017-11-03T16:01:02.914Z,48.80
2017-11-03T16:03:29.729Z,46.43
2017-11-03T16:05:56.476Z,52.23
2017-11-03T16:08:23.972Z,46.77
2017-11-03T16:10:50.767Z,40.77
2017-11-03T16:13:17.585Z,41.50
2017-11-03T16:15:44.355Z,46.60
2017-11-03T16:18:11.865Z,48.27
2017-11-03T16:20:38.630Z,49.47
2017-11-03T16:23:05.368Z,45.07
2017-11-03T16:25:32.129Z,44.23
2017-11-03T16:27:59.628Z,45.83
2017-11-03T16:30:26.371Z,48.20
2017-11-03T16:32:53.121Z,49.70
2017-11-03T16:35:19.962Z,52.70
2017-11-03T16:37:46.720Z,50.93
2017-11-03T16:40:13.524Z,47.07
2017-11-03T16:42:40.274Z,46.60
2017-11-03T16:45:07.081Z,45.50
2017-11-03T16:47:33.832Z,50.00
2017-11-03T16:50:00.569Z,49.13
2017-11-03T16:52:27.306Z,46.70
2017-11-03T16:54:54.075Z,44.93
2017-11-03T16:57:20.807Z,51.17
2017-11-03T16:59:47.564Z,45.00
2017-11-03T17:02:14.310Z,47.93
2017-11-03T17:04:41.095Z,53.83
2017-11-03T17:07:07.856Z,52.33
2017-11-03T17:09:34.599Z,49.17
2017-11-03T17:12:01.357Z,43.10
2017-11-03T17:14:28.109Z,48.80
2017-11-03T17:16:54.858Z,51.30
2017-11-03T17:19:21.615Z,48.40
2017-11-03T17:21:48.373Z,52.63
2017-11-03T17:24:15.142Z,62.63
2017-11-03T17:26:41.894Z,60.13
2017-11-03T17:29:08.655Z,53.20
2017-11-03T17:31:35.403Z,55.93
2017-11-03T17:34:02.944Z,53.00
2017-11-03T17:36:29.704Z,51.70
2017-11-03T17:38:58.018Z,55.07
2017-11-03T17:41:24.765Z,50.90
2017-11-03T17:43:51.529Z,52.67
2017-11-03T17:46:18.254Z,52.83
2017-11-03T17:48:45.008Z,53.43
2017-11-03T17:51:11.750Z,55.50
2017-11-03T17:53:38.489Z,50.47
2017-11-03T17:56:05.274Z,55.27
2017-11-03T17:58:32.782Z,55.93
2017-11-03T18:00:59.549Z,53.10
2017-11-03T18:03:27.055Z,56.20
2017-11-03T18:05:53.809Z,68.00
2017-11-03T18:08:20.557Z,63.93
2017-11-03T18:10:47.302Z,71.77
2017-11-03T18:13:14.069Z,80.10
2017-11-03T18:15:41.592Z,88.53
2017-11-03T18:18:08.346Z,70.57
2017-11-03T18:20:35.125Z,79.50
2017-11-03T18:23:01.864Z,69.93
2017-11-03T18:25:28.650Z,68.63
2017-11-03T18:27:55.404Z,71.40
2017-11-03T18:30:22.148Z,66.57
2017-11-03T18:32:48.923Z,68.60
2017-11-03T18:35:16.428Z,81.47
2017-11-03T18:37:43.160Z,73.90
2017-11-03T18:40:09.927Z,60.80
2017-11-03T18:42:36.843Z,63.47
2017-11-03T18:45:03.600Z,67.93
2017-11-03T18:47:30.342Z,60.00
2017-11-03T18:49:57.094Z,66.10
2017-11-03T18:52:24.595Z,61.37
2017-11-03T18:54:51.364Z,66.37
2017-11-03T18:57:19.060Z,65.03
2017-11-03T18:59:46.572Z,62.93
2017-11-03T19:02:13.331Z,55.97
2017-11-03T19:04:40.073Z,89.27
2017-11-03T19:07:06.860Z,74.73
2017-11-03T19:09:33.634Z,68.77
2017-11-03T19:12:00.361Z,72.17
2017-11-03T19:14:27.095Z,65.60
2017-11-03T19:16:53.841Z,62.40
2017-11-03T19:19:20.604Z,60.60
2017-11-03T19:21:47.366Z,62.17
2017-11-03T19:24:14.912Z,63.43
2017-11-03T19:26:41.642Z,62.13
2017-11-03T19:29:08.381Z,54.57
2017-11-03T19:31:35.131Z,62.80
2017-11-03T19:34:02.674Z,63.07
2017-11-03T19:36:29.436Z,76.00
2017-11-03T19:38:56.942Z,61.23
2017-11-03T19:41:23.744Z,63.83
2017-11-03T19:43:50.452Z,66.73
2017-11-03T19:46:17.229Z,66.57
2017-11-03T19:48:43.973Z,63.37
2017-11-03T19:51:10.724Z,66.27
2017-11-03T19:53:37.480Z,69.37
2017-11-03T19:56:04.233Z,63.67
2017-11-03T19:58:30.984Z,67.83
2017-11-03T20:00:57.717Z,64.40
2017-11-03T20:03:24.487Z,66.57
2017-11-03T20:05:51.985Z,67.07
2017-11-03T20:08:18.744Z,66.70
2017-11-03T20:10:45.520Z,60.70
2017-11-03T20:13:13.040Z,65.50
2017-11-03T20:15:39.772Z,65.30
2017-11-03T20:18:06.531Z,62.33
2017-11-03T20:20:34.831Z,61.43
2017-11-03T20:23:01.606Z,61.57
2017-11-03T20:25:28.328Z,64.60
2017-11-03T20:27:55.061Z,66.93
2017-11-03T20:30:21.865Z,65.00
2017-11-03T20:32:48.609Z,65.10
2017-11-03T20:35:15.528Z,68.77
2017-11-03T20:37:42.266Z,69.80
2017-11-03T20:40:09.006Z,61.83
2017-11-03T20:42:35.757Z,66.80
2017-11-03T20:45:02.510Z,57.13
2017-11-03T20:47:29.272Z,69.90
2017-11-03T20:49:56.081Z,66.27
2017-11-03T20:52:22.841Z,61.17
2017-11-03T20:54:50.353Z,64.77
2017-11-03T20:57:17.122Z,64.57
2017-11-03T20:59:43.881Z,73.63
2017-11-03T21:02:11.393Z,68.93
2017-11-03T21:04:38.160Z,72.40
2017-11-03T21:07:06.410Z,66.20
2017-11-03T21:09:33.145Z,70.13
2017-11-03T21:11:59.867Z,65.40
2017-11-03T21:14:26.596Z,71.63
2017-11-03T21:16:53.401Z,58.70
2017-11-03T21:19:20.146Z,60.40
2017-11-03T21:21:47.648Z,61.77
2017-11-03T21:24:14.571Z,66.83
2017-11-03T21:26:41.312Z,65.23
2017-11-03T21:29:08.079Z,53.30
2017-11-03T21:31:34.831Z,49.90
2017-11-03T21:34:01.584Z,60.23
2017-11-03T21:36:28.320Z,54.20
2017-11-03T21:38:55.154Z,55.50
2017-11-03T21:41:21.930Z,54.10
2017-11-03T21:43:49.447Z,56.83
2017-11-03T21:46:16.234Z,53.97
2017-11-03T21:48:43.776Z,52.73
2017-11-03T21:51:11.302Z,50.40
2017-11-03T21:53:38.080Z,52.90
2017-11-03T21:56:05.630Z,51.13
2017-11-03T21:58:33.140Z,55.43
2017-11-03T22:00:59.900Z,51.27
2017-11-03T22:03:26.648Z,48.97
2017-11-03T22:05:53.415Z,55.60
2017-11-03T22:08:20.929Z,59.63
2017-11-03T22:10:47.665Z,54.77
2017-11-03T22:13:14.429Z,59.67
2017-11-03T22:15:41.179Z,55.53
2017-11-03T22:18:08.852Z,57.63
2017-11-03T22:20:35.594Z,58.87
2017-11-03T22:23:02.343Z,59.63
2017-11-03T22:25:29.084Z,55.50
2017-11-03T22:27:55.849Z,55.33
2017-11-03T22:30:22.614Z,48.30
2017-11-03T22:32:49.511Z,51.60
2017-11-03T22:35:16.274Z,53.30
2017-11-03T22:37:43.029Z,45.40
2017-11-03T22:40:09.848Z,64.23
2017-11-03T22:42:36.557Z,71.03
2017-11-03T22:45:03.294Z,50.60
2017-11-03T22:47:30.155Z,50.30
2017-11-03T22:49:56.903Z,58.47
2017-11-03T22:52:23.666Z,65.67
2017-11-03T22:54:50.391Z,45.73
2017-11-03T22:57:17.189Z,41.90
2017-11-03T22:59:43.916Z,43.97
2017-11-03T23:02:10.717Z,39.83
2017-11-03T23:04:37.500Z,40.07
2017-11-03T23:07:05.017Z,43.03
2017-11-03T23:09:31.776Z,42.63
2017-11-03T23:11:58.540Z,40.17
2017-11-03T23:14:26.035Z,37.03
2017-11-03T23:16:52.779Z,41.83
2017-11-03T23:19:19.533Z,41.13
2017-11-03T23:21:46.292Z,37.03
2017-11-03T23:24:13.033Z,39.90
2017-11-03T23:26:40.538Z,39.87
2017-11-03T23:29:07.298Z,35.90
2017-11-03T23:31:34.069Z,37.87
2017-11-03T23:34:00.808Z,38.87
2017-11-03T23:36:27.547Z,38.20
2017-11-03T23:38:54.291Z,37.00
2017-11-03T23:41:21.815Z,41.80
2017-11-03T23:43:48.560Z,39.00
2017-11-03T23:46:15.312Z,37.63
2017-11-03T23:48:42.050Z,37.93
2017-11-03T23:51:08.776Z,36.43
2017-11-03T23:53:35.965Z,35.50
2017-11-03T23:56:02.663Z,39.60
2017-11-03T23:58:29.423Z,37.20
